createdAt,value
2018-01-08T00:00:12.913Z,7.58
2018-01-08T00:00:53.286Z,7.58
2018-01-08T00:01:33.778Z,7.55
2018-01-08T00:02:14.426Z,7.47
2018-01-08T00:02:54.764Z,7.39
2018-01-08T00:03:35.206Z,7.36
2018-01-08T00:04:15.566Z,7.48
2018-01-08T00:04:56.152Z,7.57
2018-01-08T00:05:36.516Z,7.67
2018-01-08T00:06:17.011Z,7.74
2018-01-08T00:06:57.427Z,7.79
2018-01-08T00:07:38.083Z,7.91
2018-01-08T00:08:18.161Z,8.03
2018-01-08T00:08:58.787Z,8.12
2018-01-08T00:09:39.191Z,8.14
2018-01-08T00:10:19.731Z,8.25
2018-01-08T00:11:00.158Z,8.06
2018-01-08T00:11:40.607Z,7.92
2018-01-08T00:12:23.169Z,8
2018-01-08T00:13:03.506Z,7.91
2018-01-08T00:13:44.199Z,7.89
2018-01-08T00:14:24.655Z,7.96
2018-01-08T00:15:05.938Z,7.92
2018-01-08T00:15:46.418Z,7.99
2018-01-08T00:16:26.990Z,8.04
2018-01-08T00:17:07.417Z,8.04
2018-01-08T00:17:47.977Z,8.07
2018-01-08T00:18:28.855Z,7.92
2018-01-08T00:19:09.444Z,7.89
2018-01-08T00:19:50.264Z,7.77
2018-01-08T00:20:30.827Z,7.81
2018-01-08T00:21:11.138Z,7.84
2018-01-08T00:21:51.526Z,7.95
2018-01-08T00:22:31.924Z,7.94
2018-01-08T00:23:12.301Z,7.94
2018-01-08T00:23:52.889Z,7.86
2018-01-08T00:24:33.478Z,8.09
2018-01-08T00:25:13.950Z,8.14
2018-01-08T00:25:54.325Z,8.34
2018-01-08T00:27:32.370Z,8.46
2018-01-08T00:28:13.024Z,8.52
2018-01-08T00:28:53.890Z,8.57
2018-01-08T00:29:34.179Z,8.67
2018-01-08T00:30:14.512Z,8.73
2018-01-08T00:30:54.883Z,8.73
2018-01-08T00:31:35.567Z,8.78
2018-01-08T00:32:16.015Z,8.89
2018-01-08T00:32:56.507Z,8.94
2018-01-08T00:33:36.709Z,8.98
2018-01-08T00:34:17.126Z,8.73
2018-01-08T00:34:57.569Z,8.63
2018-01-08T00:35:37.984Z,8.61
2018-01-08T00:36:18.346Z,8.52
2018-01-08T00:37:01.729Z,8.47
2018-01-08T00:37:42.185Z,8.36
2018-01-08T00:38:22.619Z,8.32
2018-01-08T00:39:03.035Z,8.43
2018-01-08T00:39:43.690Z,8.43
2018-01-08T00:40:24.056Z,8.31
2018-01-08T00:41:04.533Z,8.43
2018-01-08T00:41:44.951Z,8.31
2018-01-08T00:42:25.363Z,8.21
2018-01-08T00:43:05.805Z,8.18
2018-01-08T00:43:46.230Z,8.32
2018-01-08T00:44:26.588Z,8.4
2018-01-08T00:45:07.164Z,8.32
2018-01-08T00:45:47.691Z,8.22
2018-01-08T00:46:28.010Z,8.27
2018-01-08T00:47:08.442Z,8.34
2018-01-08T00:47:48.850Z,8.18
2018-01-08T00:48:29.427Z,8.13
2018-01-08T00:49:09.640Z,7.95
2018-01-08T00:49:50.008Z,8.03
2018-01-08T00:50:30.507Z,8
2018-01-08T00:51:10.905Z,8.2
2018-01-08T00:51:51.340Z,8.17
2018-01-08T00:52:31.726Z,8.21
2018-01-08T00:53:12.190Z,8.31
2018-01-08T00:53:52.526Z,8.22
2018-01-08T00:54:32.983Z,8.28
2018-01-08T00:55:13.417Z,8.37
2018-01-08T00:55:53.789Z,8.4
2018-01-08T00:56:34.224Z,8.45
2018-01-08T00:57:14.699Z,8.39
2018-01-08T00:57:55.116Z,8.25
2018-01-08T00:58:35.490Z,8.31
2018-01-08T00:59:15.872Z,8.45
2018-01-08T00:59:56.614Z,8.31
2018-01-08T01:00:36.965Z,8.32
2018-01-08T01:01:17.548Z,8.32
2018-01-08T01:01:57.960Z,8.39
2018-01-08T01:02:38.572Z,8.5
2018-01-08T01:03:18.872Z,8.5
2018-01-08T01:03:59.250Z,8.45
2018-01-08T01:04:40.010Z,8.47
2018-01-08T01:05:20.414Z,8.57
2018-01-08T01:07:10.940Z,8.39
2018-01-08T01:07:50.522Z,8.39
2018-01-08T01:08:31.161Z,8.37
2018-01-08T01:09:11.619Z,8.4
2018-01-08T01:09:52.041Z,8.36
2018-01-08T01:10:32.415Z,8.24
2018-01-08T01:11:12.926Z,8.21
2018-01-08T01:11:53.328Z,8.36
2018-01-08T01:12:33.756Z,8.37
2018-01-08T01:13:14.391Z,8.32
2018-01-08T01:13:54.911Z,8.37
2018-01-08T01:14:35.264Z,8.4
2018-01-08T01:15:15.709Z,8.37
2018-01-08T01:15:56.194Z,8.39
2018-01-08T01:16:36.509Z,8.42
2018-01-08T01:17:16.988Z,8.4
2018-01-08T01:17:57.417Z,8.43
2018-01-08T01:18:38.030Z,8.4
2018-01-08T01:19:18.553Z,8.32
2018-01-08T01:19:58.959Z,8.28
2018-01-08T01:20:39.684Z,8.18
2018-01-08T01:21:19.980Z,8.21
2018-01-08T01:22:00.964Z,8.17
2018-01-08T01:22:41.342Z,8.03
2018-01-08T01:23:21.944Z,7.91
2018-01-08T01:24:02.902Z,7.99
2018-01-08T01:24:43.200Z,7.94
2018-01-08T01:25:23.859Z,7.96
2018-01-08T01:26:04.457Z,7.94
2018-01-08T01:26:44.728Z,7.84
2018-01-08T01:27:25.104Z,7.89
2018-01-08T01:28:05.634Z,7.92
2018-01-08T01:28:46.214Z,8.09
2018-01-08T01:29:26.539Z,8.18
2018-01-08T01:30:06.924Z,8.32
2018-01-08T01:30:47.478Z,8.4
2018-01-08T01:31:28.366Z,8.49
2018-01-08T01:32:09.197Z,8.5
2018-01-08T01:34:02.781Z,8.5
2018-01-08T01:34:43.132Z,8.52
2018-01-08T01:35:23.640Z,8.6
2018-01-08T01:36:03.938Z,8.71
2018-01-08T01:36:44.335Z,8.75
2018-01-08T01:37:24.774Z,8.55
2018-01-08T01:38:05.293Z,8.46
2018-01-08T01:38:46.219Z,8.09
2018-01-08T01:40:23.402Z,7.94
2018-01-08T01:41:03.795Z,8.09
2018-01-08T01:41:44.341Z,8.21
2018-01-08T01:42:24.908Z,7.94
2018-01-08T01:43:05.442Z,7.84
2018-01-08T01:43:45.752Z,7.82
2018-01-08T01:44:26.349Z,7.77
2018-01-08T01:45:06.666Z,7.69
2018-01-08T01:45:47.149Z,7.7
2018-01-08T01:46:27.764Z,7.86
2018-01-08T01:47:08.221Z,7.92
2018-01-08T01:47:48.719Z,8.03
2018-01-08T01:48:29.164Z,8.24
2018-01-08T01:49:09.509Z,8.32
2018-01-08T01:49:50.124Z,8.37
2018-01-08T01:50:30.607Z,8.47
2018-01-08T01:51:11.105Z,8.54
2018-01-08T01:51:51.292Z,8.65
2018-01-08T01:52:31.671Z,8.76
2018-01-08T01:53:12.066Z,8.78
2018-01-08T01:53:52.565Z,8.93
2018-01-08T01:54:33.613Z,8.91
2018-01-08T01:55:15.043Z,8.88
2018-01-08T01:55:54.547Z,8.79
2018-01-08T01:56:34.819Z,8.78
2018-01-08T01:57:15.415Z,8.82
2018-01-08T01:57:56.740Z,8.89
2018-01-08T01:58:36.645Z,8.94
2018-01-08T01:59:17.212Z,8.91
2018-01-08T01:59:57.584Z,9.04
2018-01-08T02:00:37.938Z,9.08
2018-01-08T02:02:38.315Z,9.08
2018-01-08T02:03:19.940Z,9.03
2018-01-08T02:04:00.188Z,9.06
2018-01-08T02:04:40.976Z,9.12
2018-01-08T02:05:21.470Z,9.1
2018-01-08T02:06:01.870Z,9.06
2018-01-08T02:06:42.359Z,9.06
2018-01-08T02:07:22.718Z,9.08
2018-01-08T02:08:03.148Z,9
2018-01-08T02:08:43.897Z,9.01
2018-01-08T02:09:24.468Z,8.94
2018-01-08T02:10:04.849Z,8.93
2018-01-08T02:10:45.444Z,8.89
2018-01-08T02:11:25.864Z,8.89
2018-01-08T02:12:06.463Z,8.97
2018-01-08T02:12:46.882Z,8.88
2018-01-08T02:13:27.371Z,8.86
2018-01-08T02:14:07.998Z,8.75
2018-01-08T02:14:48.608Z,8.54
2018-01-08T02:15:29.150Z,8.63
2018-01-08T02:16:09.560Z,8.67
2018-01-08T02:16:50.173Z,8.54
2018-01-08T02:17:30.699Z,8.57
2018-01-08T02:18:11.445Z,8.57
2018-01-08T02:18:51.851Z,8.57
2018-01-08T02:19:32.358Z,8.68
2018-01-08T02:20:13.279Z,8.76
2018-01-08T02:20:53.664Z,8.78
2018-01-08T02:21:34.083Z,9.01
2018-01-08T02:22:14.477Z,9.06
2018-01-08T02:22:54.858Z,9.06
2018-01-08T02:23:35.336Z,9.2
2018-01-08T02:24:15.680Z,9.08
2018-01-08T02:24:56.139Z,9.04
2018-01-08T02:25:36.535Z,8.96
2018-01-08T02:26:17.043Z,8.88
2018-01-08T02:26:57.790Z,9.03
2018-01-08T02:27:37.983Z,8.94
2018-01-08T02:28:18.369Z,9.15
2018-01-08T02:28:58.758Z,8.91
2018-01-08T02:29:39.407Z,8.98
2018-01-08T02:30:19.920Z,9.08
2018-01-08T02:31:01.260Z,8.94
2018-01-08T02:31:41.809Z,8.89
2018-01-08T02:32:22.141Z,8.88
2018-01-08T02:33:02.622Z,8.76
2018-01-08T02:33:43.275Z,8.67
2018-01-08T02:34:23.713Z,8.57
2018-01-08T02:35:04.038Z,8.28
2018-01-08T02:35:44.521Z,8.36
2018-01-08T02:36:24.975Z,8.31
2018-01-08T02:37:05.514Z,8.52
2018-01-08T02:37:45.997Z,8.46
2018-01-08T02:38:26.331Z,8.25
2018-01-08T02:39:06.770Z,8.25
2018-01-08T02:39:47.113Z,8.2
2018-01-08T02:40:27.798Z,8.18
2018-01-08T02:41:08.003Z,8.09
2018-01-08T02:41:48.889Z,8.09
2018-01-08T02:42:29.273Z,8.03
2018-01-08T02:43:09.684Z,8.1
2018-01-08T02:43:49.987Z,8.17
2018-01-08T02:44:30.970Z,8.24
2018-01-08T02:45:11.644Z,8.14
2018-01-08T02:45:52.781Z,8.02
2018-01-08T02:46:33.282Z,7.85
2018-01-08T02:47:13.671Z,7.84
2018-01-08T02:47:54.586Z,7.81
2018-01-08T02:48:34.928Z,7.79
2018-01-08T02:49:15.404Z,7.76
2018-01-08T02:49:55.786Z,7.66
2018-01-08T02:50:36.311Z,7.51
2018-01-08T02:51:17.219Z,7.37
2018-01-08T02:51:57.569Z,7.24
2018-01-08T02:52:37.897Z,7.26
2018-01-08T02:53:18.280Z,7.3
2018-01-08T02:53:58.685Z,7.36
2018-01-08T02:54:39.143Z,7.57
2018-01-08T02:55:19.478Z,7.54
2018-01-08T02:55:59.940Z,7.62
2018-01-08T02:56:40.600Z,7.58
2018-01-08T02:57:20.772Z,7.55
2018-01-08T02:58:01.310Z,7.6
2018-01-08T02:58:41.764Z,7.48
2018-01-08T02:59:22.247Z,7.58
2018-01-08T03:00:02.589Z,7.73
2018-01-08T03:00:43.012Z,7.73
2018-01-08T03:01:23.390Z,7.76
2018-01-08T03:02:03.932Z,7.63
2018-01-08T03:02:44.342Z,7.62
2018-01-08T03:03:24.842Z,7.63
2018-01-08T03:04:05.255Z,7.63
2018-01-08T03:04:45.633Z,7.45
2018-01-08T03:05:26.695Z,7.54
2018-01-08T03:06:06.842Z,7.14
2018-01-08T03:06:47.589Z,6.9
2018-01-08T03:07:27.997Z,6.79
2018-01-08T03:08:08.368Z,6.53
2018-01-08T03:08:48.855Z,6.57
2018-01-08T03:09:29.226Z,6.53
2018-01-08T03:10:09.657Z,6.53
2018-01-08T03:10:50.573Z,6.51
2018-01-08T03:11:30.769Z,6.43
2018-01-08T03:12:11.172Z,6.51
2018-01-08T03:12:51.673Z,6.55
2018-01-08T03:13:32.136Z,6.79
2018-01-08T03:14:12.740Z,6.87
2018-01-08T03:14:53.027Z,7
2018-01-08T03:15:33.437Z,7.15
2018-01-08T03:16:13.754Z,7.26
2018-01-08T03:16:54.275Z,7.34
2018-01-08T03:17:34.587Z,7.14
2018-01-08T03:18:14.972Z,6.89
2018-01-08T03:18:55.622Z,6.65
2018-01-08T03:19:36.026Z,6.55
2018-01-08T03:20:16.772Z,6.51
2018-01-08T03:20:57.060Z,6.48
2018-01-08T03:21:37.515Z,6.57
2018-01-08T03:22:17.924Z,6.68
2018-01-08T03:22:58.338Z,6.65
2018-01-08T03:23:38.674Z,6.69
2018-01-08T03:24:19.312Z,6.54
2018-01-08T03:24:59.968Z,6.5
2018-01-08T03:25:40.845Z,6.64
2018-01-08T03:26:21.311Z,6.6
2018-01-08T03:27:01.839Z,6.54
2018-01-08T03:27:42.458Z,6.58
2018-01-08T03:28:23.024Z,6.38
2018-01-08T03:29:03.382Z,6.3
2018-01-08T03:29:43.787Z,6.45
2018-01-08T03:30:24.582Z,6.45
2018-01-08T03:31:04.659Z,6.57
2018-01-08T03:31:45.238Z,6.3
2018-01-08T03:32:25.925Z,6.3
2018-01-08T03:33:06.370Z,6.2
2018-01-08T03:33:46.732Z,6.28
2018-01-08T03:34:27.249Z,6.25
2018-01-08T03:35:07.800Z,6.3
2018-01-08T03:35:48.419Z,6.53
2018-01-08T03:36:28.769Z,6.54
2018-01-08T03:37:09.255Z,6.5
2018-01-08T03:37:49.707Z,6.55
2018-01-08T03:38:30.140Z,6.5
2018-01-08T03:39:11.023Z,6.54
2018-01-08T03:39:51.407Z,6.53
2018-01-08T03:40:33.054Z,6.48
2018-01-08T03:41:13.754Z,6.57
2018-01-08T03:41:54.240Z,6.5
2018-01-08T03:42:34.867Z,6.53
2018-01-08T03:43:15.141Z,6.57
2018-01-08T03:43:55.472Z,6.54
2018-01-08T03:44:36.106Z,6.61
2018-01-08T03:45:16.476Z,6.89
2018-01-08T03:45:57.426Z,6.9
2018-01-08T03:46:38.120Z,7.01
2018-01-08T03:47:18.466Z,6.93
2018-01-08T03:47:59.084Z,6.93
2018-01-08T03:48:39.359Z,7
2018-01-08T03:49:20.193Z,7.15
2018-01-08T03:50:00.514Z,7.09
2018-01-08T03:50:41.160Z,7.19
2018-01-08T03:51:21.342Z,7.23
2018-01-08T03:53:23.126Z,7.52
2018-01-08T03:54:20.012Z,7.23
2018-01-08T03:55:16.086Z,7.15
2018-01-08T03:56:11.775Z,6.81
2018-01-08T03:58:46.303Z,6.69
2018-01-08T03:59:27.424Z,6.76
2018-01-08T04:00:07.683Z,6.83
2018-01-08T04:00:48.395Z,6.9
2018-01-08T04:01:28.622Z,6.93
2018-01-08T04:42:24.410Z,6.93
2018-01-08T04:43:04.967Z,6.99
2018-01-08T04:43:45.492Z,7.09
2018-01-08T04:44:26.270Z,7.15
2018-01-08T04:45:06.613Z,7.11
2018-01-08T04:45:47.059Z,7.14
2018-01-08T04:46:27.476Z,7.01
2018-01-08T04:47:07.848Z,6.93
2018-01-08T04:47:48.313Z,6.89
2018-01-08T04:48:28.657Z,6.65
2018-01-08T04:49:09.335Z,6.64
2018-01-08T04:49:50.354Z,6.72
2018-01-08T04:50:30.903Z,6.51
2018-01-08T04:51:11.430Z,6.43
2018-01-08T04:51:52.250Z,6.35
2018-01-08T04:52:32.576Z,6.53
2018-01-08T04:53:13.121Z,6.51
2018-01-08T04:53:54.150Z,6.6
2018-01-08T04:54:34.562Z,6.71
2018-01-08T04:55:15.153Z,6.69
2018-01-08T04:55:55.638Z,6.58
2018-01-08T04:56:36.890Z,6.5
2018-01-08T04:57:17.198Z,6.54
2018-01-08T04:57:57.668Z,6.61
2018-01-08T04:58:38.002Z,6.64
2018-01-08T04:59:18.362Z,6.71
2018-01-08T04:59:59.620Z,6.76
2018-01-08T05:00:39.937Z,6.75
2018-01-08T05:01:20.428Z,6.81
2018-01-08T05:02:00.852Z,6.93
2018-01-08T05:02:41.838Z,7.14
2018-01-08T05:03:22.357Z,7.23
2018-01-08T05:04:03.016Z,7.34
2018-01-08T05:04:43.604Z,7.42
2018-01-08T05:05:24.049Z,7.3
2018-01-08T05:06:04.448Z,7.12
2018-01-08T05:06:44.915Z,7.08
2018-01-08T05:07:25.511Z,7.11
2018-01-08T05:08:06.386Z,7.16
2018-01-08T05:08:47.425Z,7.26
2018-01-08T05:09:27.843Z,7.29
2018-01-08T05:10:08.263Z,7.39
2018-01-08T05:10:48.844Z,7.3
2018-01-08T05:11:29.120Z,7.5
2018-01-08T05:12:09.496Z,7.57
2018-01-08T05:12:50.431Z,7.47
2018-01-08T05:13:31.008Z,7.3
2018-01-08T05:14:11.503Z,6.99
2018-01-08T05:14:51.874Z,6.96
2018-01-08T05:15:32.659Z,6.82
2018-01-08T05:16:13.265Z,6.65
2018-01-08T05:16:53.616Z,6.48
2018-01-08T05:17:34.268Z,6.55
2018-01-08T05:18:14.662Z,6.65
2018-01-08T05:18:55.216Z,6.78
2018-01-08T05:20:47.607Z,6.76
2018-01-08T05:21:28.367Z,6.93
2018-01-08T05:22:08.775Z,6.9
2018-01-08T05:22:49.775Z,7.04
2018-01-08T05:23:30.384Z,7
2018-01-08T05:24:10.527Z,7.14
2018-01-08T05:24:51.015Z,7.27
2018-01-08T05:25:32.247Z,7.34
2018-01-08T05:26:12.602Z,7.45
2018-01-08T05:26:53.805Z,7.54
2018-01-08T05:27:34.195Z,7.6
2018-01-08T05:28:15.104Z,7.34
2018-01-08T05:28:55.536Z,7.33
2018-01-08T05:29:36.056Z,7.39
2018-01-08T05:30:16.986Z,7.54
2018-01-08T05:30:57.425Z,7.52
2018-01-08T05:31:37.761Z,7.55
2018-01-08T05:32:19.275Z,7.57
2018-01-08T05:32:59.849Z,7.6
2018-01-08T05:33:40.569Z,7.58
2018-01-08T05:34:20.976Z,7.57
2018-01-08T05:35:01.358Z,7.47
2018-01-08T05:35:41.857Z,7.48
2018-01-08T05:36:22.396Z,7.6
2018-01-08T05:37:02.669Z,7.57
2018-01-08T05:37:43.638Z,7.37
2018-01-08T05:38:24.427Z,7.37
2018-01-08T05:39:04.913Z,7.41
2018-01-08T05:39:45.786Z,7.39
2018-01-08T05:40:25.780Z,7.19
2018-01-08T05:41:06.195Z,7.23
2018-01-08T05:41:46.548Z,7.18
2018-01-08T05:42:27.305Z,7.19
2018-01-08T05:43:07.592Z,7.08
2018-01-08T05:43:47.883Z,7.04
2018-01-08T05:44:28.480Z,6.91
2018-01-08T05:45:09.102Z,6.82
2018-01-08T05:45:49.506Z,7.05
2018-01-08T05:46:29.894Z,7.21
2018-01-08T05:47:10.322Z,7.33
2018-01-08T05:47:50.724Z,7.45
2018-01-08T05:48:31.116Z,7.62
2018-01-08T05:49:11.563Z,7.7
2018-01-08T05:49:51.874Z,7.6
2018-01-08T05:50:32.363Z,7.54
2018-01-08T05:51:12.952Z,7.57
2018-01-08T05:51:53.310Z,7.62
2018-01-08T05:52:33.742Z,7.63
2018-01-08T05:53:14.343Z,7.69
2018-01-08T05:53:55.070Z,7.81
2018-01-08T05:54:35.562Z,7.95
2018-01-08T05:55:15.971Z,7.81
2018-01-08T05:55:56.470Z,7.57
2018-01-08T05:56:37.012Z,7.55
2018-01-08T05:57:17.372Z,7.52
2018-01-08T05:57:57.767Z,7.63
2018-01-08T05:58:38.300Z,7.62
2018-01-08T06:01:54.964Z,7.92
2018-01-08T06:02:37.739Z,8.03
2018-01-08T06:03:18.152Z,8.13
2018-01-08T06:03:58.572Z,8.21
2018-01-08T06:04:39.010Z,8.14
2018-01-08T06:05:19.386Z,8.03
2018-01-08T06:05:59.815Z,7.95
2018-01-08T06:06:40.340Z,7.92
2018-01-08T06:07:21.111Z,7.92
2018-01-08T06:08:01.933Z,7.79
2018-01-08T06:08:42.450Z,7.79
2018-01-08T06:09:23.122Z,7.82
2018-01-08T06:10:03.661Z,7.84
2018-01-08T06:10:43.991Z,7.95
2018-01-08T06:11:24.727Z,7.79
2018-01-08T06:12:05.373Z,7.7
2018-01-08T06:12:45.643Z,7.67
2018-01-08T06:13:26.058Z,7.58
2018-01-08T06:14:06.624Z,7.42
2018-01-08T06:14:47.012Z,7.33
2018-01-08T06:15:27.803Z,7.14
2018-01-08T06:16:08.222Z,7.24
2018-01-08T06:16:48.665Z,7.33
2018-01-08T06:17:29.377Z,7.52
2018-01-08T06:18:10.371Z,7.67
2018-01-08T06:18:50.819Z,7.85
2018-01-08T06:19:31.536Z,7.84
2018-01-08T06:20:11.781Z,7.92
2018-01-08T06:20:52.523Z,7.86
2018-01-08T06:21:32.887Z,7.84
2018-01-08T06:22:13.359Z,7.94
2018-01-08T06:22:53.769Z,7.92
2018-01-08T06:23:34.733Z,7.99
2018-01-08T06:24:15.288Z,7.95
2018-01-08T06:26:29.466Z,7.79
2018-01-08T06:27:09.101Z,7.77
2018-01-08T06:27:49.531Z,7.69
2018-01-08T06:28:29.901Z,7.66
2018-01-08T06:29:10.404Z,7.74
2018-01-08T06:29:51.883Z,7.82
2018-01-08T06:30:32.202Z,7.85
2018-01-08T06:31:12.657Z,7.99
2018-01-08T06:31:53.107Z,8.04
2018-01-08T06:32:33.631Z,8.28
2018-01-08T06:33:14.185Z,8.1
2018-01-08T06:33:54.814Z,7.71
2018-01-08T06:34:35.333Z,7.69
2018-01-08T06:35:16.284Z,7.81
2018-01-08T06:35:56.756Z,7.84
2018-01-08T06:36:37.141Z,7.79
2018-01-08T06:37:17.855Z,7.67
2018-01-08T06:37:58.469Z,7.6
2018-01-08T06:38:38.886Z,7.55
2018-01-08T06:39:19.275Z,7.54
2018-01-08T06:39:59.940Z,7.48
2018-01-08T06:40:40.152Z,7.37
2018-01-08T06:41:20.662Z,7.36
2018-01-08T06:42:01.446Z,7.34
2018-01-08T06:42:41.920Z,7.36
2018-01-08T06:43:22.274Z,7.34
2018-01-08T06:44:02.710Z,7.39
2018-01-08T06:44:43.432Z,7.41
2018-01-08T06:45:24.028Z,7.36
2018-01-08T06:46:04.252Z,7.55
2018-01-08T06:46:45.251Z,7.6
2018-01-08T06:47:26.020Z,7.5
2018-01-08T06:48:06.324Z,7.55
2018-01-08T06:48:46.687Z,7.67
2018-01-08T06:49:27.265Z,7.73
2018-01-08T06:50:08.376Z,7.77
2018-01-08T06:50:48.942Z,7.67
2018-01-08T06:51:29.353Z,7.62
2018-01-08T06:52:09.784Z,7.6
2018-01-08T06:52:50.394Z,7.62
2018-01-08T06:53:32.249Z,7.76
2018-01-08T06:54:12.509Z,7.69
2018-01-08T06:54:53.019Z,7.81
2018-01-08T06:55:33.426Z,7.92
2018-01-08T06:56:14.140Z,7.96
2018-01-08T06:56:54.494Z,7.99
2018-01-08T06:57:35.955Z,7.74
2018-01-08T06:58:16.167Z,7.69
2018-01-08T06:58:57.152Z,7.58
2018-01-08T06:59:37.349Z,7.58
2018-01-08T07:00:17.996Z,7.58
2018-01-08T07:00:58.238Z,7.44
2018-01-08T07:01:38.638Z,7.58
2018-01-08T07:02:19.051Z,7.63
2018-01-08T07:02:59.517Z,7.76
2018-01-08T07:03:39.872Z,7.95
2018-01-08T07:04:20.908Z,7.81
2018-01-08T07:05:01.500Z,7.81
2018-01-08T07:05:41.956Z,7.81
2018-01-08T07:06:22.436Z,7.92
2018-01-08T07:07:03.560Z,7.76
2018-01-08T07:07:45.141Z,7.81
2018-01-08T07:08:25.477Z,7.69
2018-01-08T07:09:05.799Z,7.85
2018-01-08T07:09:46.167Z,7.91
2018-01-08T07:10:26.609Z,7.85
2018-01-08T07:11:07.064Z,7.79
2018-01-08T07:11:47.687Z,7.86
2018-01-08T07:12:28.445Z,8.07
2018-01-08T07:13:08.952Z,8.17
2018-01-08T07:13:49.350Z,8.22
2018-01-08T07:14:29.738Z,8.32
2018-01-08T07:15:10.216Z,8.29
2018-01-08T07:15:50.665Z,8.18
2018-01-08T07:16:31.070Z,7.99
2018-01-08T07:17:11.674Z,7.82
2018-01-08T07:17:52.188Z,7.81
2018-01-08T07:18:32.596Z,7.71
2018-01-08T07:19:12.958Z,7.69
2018-01-08T07:19:53.669Z,7.74
2018-01-08T07:20:34.133Z,7.66
2018-01-08T07:21:15.213Z,7.63
2018-01-08T07:23:03.239Z,7.79
2018-01-08T07:23:43.728Z,7.62
2018-01-08T07:24:24.180Z,7.5
2018-01-08T07:25:05.858Z,7.57
2018-01-08T07:25:45.586Z,7.66
2018-01-08T07:26:26.225Z,7.71
2018-01-08T07:27:06.800Z,7.66
2018-01-08T07:27:47.211Z,7.51
2018-01-08T07:28:27.955Z,7.58
2018-01-08T07:29:08.544Z,7.57
2018-01-08T07:29:49.169Z,7.57
2018-01-08T07:30:29.886Z,7.57
2018-01-08T07:31:10.317Z,7.47
2018-01-08T07:31:50.856Z,7.29
2018-01-08T07:32:31.324Z,7.21
2018-01-08T07:33:12.287Z,7.14
2018-01-08T07:33:52.654Z,7.14
2018-01-08T07:34:33.129Z,7.33
2018-01-08T07:35:13.524Z,7.3
2018-01-08T07:35:54.060Z,7.34
2018-01-08T07:36:34.505Z,7.48
2018-01-08T07:37:15.007Z,7.57
2018-01-08T07:37:55.809Z,7.76
2018-01-08T07:38:36.245Z,7.73
2018-01-08T07:39:16.702Z,7.69
2018-01-08T07:39:57.207Z,7.6
2018-01-08T07:40:37.798Z,7.54
2018-01-08T07:41:18.334Z,7.33
2018-01-08T07:41:58.789Z,7.33
2018-01-08T07:42:39.149Z,7.36
2018-01-08T07:43:19.797Z,7.33
2018-01-08T07:44:00.939Z,7.16
2018-01-08T07:44:41.273Z,7.05
2018-01-08T07:45:21.658Z,7.15
2018-01-08T07:46:02.185Z,7.29
2018-01-08T07:46:42.716Z,7.5
2018-01-08T07:47:23.180Z,7.62
2018-01-08T07:48:03.658Z,7.58
2018-01-08T07:48:48.875Z,7.66
2018-01-08T07:49:30.567Z,7.54
2018-01-08T07:50:11.192Z,7.55
2018-01-08T07:50:51.642Z,7.48
2018-01-08T07:51:32.507Z,7.27
2018-01-08T07:52:12.932Z,7.12
2018-01-08T07:52:53.387Z,7.15
2018-01-08T07:53:37.946Z,7.33
2018-01-08T07:54:15.965Z,7.45
2018-01-08T07:54:56.441Z,7.5
2018-01-08T07:55:37.456Z,7.62
2018-01-08T07:56:17.468Z,7.6
2018-01-08T07:56:57.781Z,7.66
2018-01-08T07:58:55.197Z,7.96
2018-01-08T07:59:41.170Z,7.91
2018-01-08T08:00:20.513Z,7.77
2018-01-08T08:01:01.545Z,7.7
2018-01-08T08:01:41.951Z,7.54
2018-01-08T08:02:22.455Z,7.33
2018-01-08T08:03:02.829Z,7.11
2018-01-08T08:03:43.248Z,6.9
2018-01-08T08:04:23.640Z,6.89
2018-01-08T08:05:04.088Z,7
2018-01-08T08:05:44.550Z,6.87
2018-01-08T08:06:26.353Z,6.97
2018-01-08T08:07:06.891Z,6.97
2018-01-08T08:07:47.493Z,6.96
2018-01-08T08:10:18.768Z,6.82
2018-01-08T08:10:58.812Z,6.91
2018-01-08T08:11:39.572Z,6.91
2018-01-08T08:12:19.971Z,7.01
2018-01-08T08:13:00.325Z,6.87
2018-01-08T08:13:41.315Z,6.64
2018-01-08T08:14:22.115Z,6.61
2018-01-08T08:15:02.141Z,6.53
2018-01-08T08:15:42.989Z,6.53
2018-01-08T08:16:23.594Z,6.55
2018-01-08T08:17:04.091Z,6.6
2018-01-08T08:17:44.493Z,6.58
2018-01-08T08:18:24.972Z,6.63
2018-01-08T08:19:05.335Z,6.53
2018-01-08T08:19:45.845Z,6.54
2018-01-08T08:20:26.388Z,6.6
2018-01-08T08:21:06.724Z,6.81
2018-01-08T08:21:47.301Z,6.94
2018-01-08T08:22:27.767Z,6.99
2018-01-08T08:23:08.487Z,7.05
2018-01-08T08:23:48.836Z,7.12
2018-01-08T08:24:29.511Z,7.08
2018-01-08T08:25:09.997Z,7.18
2018-01-08T08:25:50.654Z,7.15
2018-01-08T08:26:31.162Z,7.21
2018-01-08T08:27:12.008Z,7.33
2018-01-08T08:27:52.660Z,7.3
2018-01-08T08:28:33.584Z,7.34
2018-01-08T08:29:14.253Z,7.01
2018-01-08T08:29:54.424Z,6.9
2018-01-08T08:30:34.947Z,6.68
2018-01-08T08:31:15.370Z,6.83
2018-01-08T08:31:56.046Z,6.93
2018-01-08T08:32:36.782Z,6.89
2018-01-08T08:33:17.274Z,6.79
2018-01-08T08:33:58.436Z,6.82
2018-01-08T08:34:38.994Z,6.75
2018-01-08T08:35:19.840Z,6.68
2018-01-08T08:36:00.379Z,6.54
2018-01-08T08:36:40.857Z,6.57
2018-01-08T08:37:22.171Z,6.48
2018-01-08T08:38:02.563Z,6.64
2018-01-08T08:38:43.098Z,6.93
2018-01-08T08:39:23.871Z,7.04
2018-01-08T08:40:04.138Z,7.26
2018-01-08T08:40:44.691Z,7.18
2018-01-08T08:41:25.321Z,7.04
2018-01-08T08:42:05.776Z,6.9
2018-01-08T08:42:46.100Z,6.96
2018-01-08T08:43:29.238Z,7.04
2018-01-08T08:44:08.774Z,7.12
2018-01-08T08:44:49.782Z,7.07
2018-01-08T08:45:30.322Z,7.11
2018-01-08T08:46:10.906Z,7.14
2018-01-08T08:46:51.369Z,7.24
2018-01-08T08:47:31.816Z,7.27
2018-01-08T08:48:12.170Z,7.18
2018-01-08T08:48:52.649Z,7.3
2018-01-08T08:49:33.129Z,7.11
2018-01-08T08:50:13.747Z,7.14
2018-01-08T08:50:53.956Z,7.19
2018-01-08T08:51:34.411Z,7.23
2018-01-08T08:52:14.937Z,7.32
2018-01-08T08:52:55.446Z,7.36
2018-01-08T08:53:35.966Z,7.21
2018-01-08T08:54:16.548Z,7.32
2018-01-08T08:54:57.018Z,7.33
2018-01-08T08:55:37.401Z,7.14
2018-01-08T08:56:17.838Z,7.11
2018-01-08T08:56:58.237Z,7.27
2018-01-08T08:57:38.997Z,7.23
2018-01-08T08:58:19.543Z,7.09
2018-01-08T08:59:00.199Z,7.12
2018-01-08T08:59:40.152Z,7.14
2018-01-08T09:00:20.619Z,7.12
2018-01-08T09:01:01.057Z,7.12
2018-01-08T09:01:41.818Z,7.19
2018-01-08T09:02:22.275Z,7.23
2018-01-08T09:03:02.863Z,7.15
2018-01-08T09:03:43.418Z,7.05
2018-01-08T09:04:24.314Z,7.12
2018-01-08T09:05:05.058Z,7.05
2018-01-08T09:05:45.733Z,7.07
2018-01-08T09:06:26.218Z,7.23
2018-01-08T09:07:06.784Z,7.36
2018-01-08T09:07:47.505Z,7.45
2018-01-08T09:08:27.631Z,7.5
2018-01-08T09:09:08.114Z,7.55
2018-01-08T09:09:48.967Z,7.67
2018-01-08T09:10:29.242Z,7.73
2018-01-08T09:11:09.713Z,7.85
2018-01-08T09:11:50.551Z,7.76
2018-01-08T09:12:30.992Z,7.54
2018-01-08T09:13:11.864Z,7.19
2018-01-08T09:13:52.334Z,7.08
2018-01-08T09:14:33.027Z,7.01
2018-01-08T09:15:13.578Z,6.89
2018-01-08T09:15:53.930Z,6.82
2018-01-08T09:16:34.332Z,6.71
2018-01-08T09:17:15.184Z,6.78
2018-01-08T09:17:55.755Z,6.79
2018-01-08T09:18:37.197Z,6.76
2018-01-08T09:19:17.808Z,6.53
2018-01-08T09:19:58.529Z,6.54
2018-01-08T09:20:38.981Z,6.68
2018-01-08T09:21:19.730Z,6.79
2018-01-08T09:22:00.738Z,6.83
2018-01-08T09:22:41.844Z,6.94
2018-01-08T09:23:22.327Z,6.96
2018-01-08T09:24:02.866Z,7.04
2018-01-08T09:24:43.223Z,7.15
2018-01-08T09:25:23.608Z,7.14
2018-01-08T09:27:14.486Z,6.93
2018-01-08T09:27:55.240Z,6.96
2018-01-08T09:28:35.675Z,6.99
2018-01-08T09:29:16.038Z,7.15
2018-01-08T09:29:56.394Z,7.21
2018-01-08T09:30:37.002Z,7.23
2018-01-08T09:31:17.383Z,7.33
2018-01-08T09:31:57.790Z,7.58
2018-01-08T09:32:38.220Z,7.57
2018-01-08T09:33:18.645Z,7.67
2018-01-08T09:33:59.499Z,7.58
2018-01-08T09:34:39.931Z,7.21
2018-01-08T09:35:20.536Z,7.14
2018-01-08T09:36:00.885Z,7.19
2018-01-08T09:36:41.595Z,7.14
2018-01-08T09:37:22.163Z,6.96
2018-01-08T09:38:02.773Z,6.91
2018-01-08T09:38:43.137Z,6.97
2018-01-08T09:39:24.157Z,7.01
2018-01-08T09:40:04.606Z,7.01
2018-01-08T09:40:45.059Z,7.08
2018-01-08T09:41:25.458Z,7.14
2018-01-08T09:42:06.342Z,7.09
2018-01-08T09:42:46.741Z,7.14
2018-01-08T09:43:27.367Z,7.26
2018-01-08T09:44:07.873Z,7.42
2018-01-08T09:44:48.128Z,7.48
2018-01-08T09:45:29.569Z,7.48
2018-01-08T09:46:09.332Z,7.36
2018-01-08T09:46:49.827Z,7.21
2018-01-08T09:47:31.204Z,7.15
2018-01-08T09:48:12.071Z,7.07
2018-01-08T09:48:52.405Z,7.05
2018-01-08T09:49:33.273Z,6.99
2018-01-08T09:50:13.706Z,6.96
2018-01-08T09:50:54.100Z,6.83
2018-01-08T09:51:35.695Z,6.72
2018-01-08T09:52:16.203Z,6.79
2018-01-08T09:52:56.669Z,6.78
2018-01-08T09:53:37.145Z,6.64
2018-01-08T09:54:18.110Z,6.76
2018-01-08T09:54:58.479Z,6.73
2018-01-08T09:55:38.960Z,6.97
2018-01-08T09:56:19.335Z,7.05
2018-01-08T09:56:59.904Z,7.14
2018-01-08T09:57:40.240Z,7.16
2018-01-08T09:58:20.621Z,7.32
2018-01-08T09:59:01.128Z,7.39
2018-01-08T09:59:42.031Z,7.51
2018-01-08T10:00:22.245Z,7.48
2018-01-08T10:01:02.704Z,7.45
2018-01-08T10:01:43.181Z,7.34
2018-01-08T10:02:24.757Z,7.34